sensor_id;sensor_type;location;lat;lon;timestamp;P1;durP1;ratioP1;P2;durP2;ratioP2
10715;SDS011;5409;42.620;23.316;2023-03-20T00:00:23;3.55;;;2.50;;
10715;SDS011;5409;42.620;23.316;2023-03-20T00:02:55;2.65;;;2.20;;
10715;SDS011;5409;42.620;23.316;2023-03-20T00:05:22;3.85;;;2.60;;
10715;SDS011;5409;42.620;23.316;2023-03-20T00:07:52;4.65;;;2.80;;
10715;SDS011;5409;42.620;23.316;2023-03-20T00:10:20;2.85;;;2.40;;
10715;SDS011;5409;42.620;23.316;2023-03-20T00:12:47;3.25;;;2.25;;
10715;SDS011;5409;42.620;23.316;2023-03-20T00:15:22;3.65;;;1.92;;
10715;SDS011;5409;42.620;23.316;2023-03-20T00:17:51;4.45;;;2.40;;
10715;SDS011;5409;42.620;23.316;2023-03-20T00:20:19;4.18;;;2.88;;
10715;SDS011;5409;42.620;23.316;2023-03-20T00:22:47;4.57;;;2.80;;
10715;SDS011;5409;42.620;23.316;2023-03-20T00:25:14;4.32;;;2.63;;
10715;SDS011;5409;42.620;23.316;2023-03-20T00:27:42;4.38;;;2.72;;
10715;SDS011;5409;42.620;23.316;2023-03-20T00:30:20;4.10;;;2.50;;
10715;SDS011;5409;42.620;23.316;2023-03-20T00:32:50;5.30;;;2.50;;
10715;SDS011;5409;42.620;23.316;2023-03-20T00:35:18;4.25;;;2.40;;
10715;SDS011;5409;42.620;23.316;2023-03-20T00:37:49;3.63;;;2.47;;
10715;SDS011;5409;42.620;23.316;2023-03-20T00:40:17;3.30;;;2.45;;
10715;SDS011;5409;42.620;23.316;2023-03-20T00:42:45;2.80;;;2.50;;
10715;SDS011;5409;42.620;23.316;2023-03-20T00:45:16;6.32;;;2.45;;
10715;SDS011;5409;42.620;23.316;2023-03-20T00:47:45;8.00;;;2.38;;
10715;SDS011;5409;42.620;23.316;2023-03-20T00:50:15;3.15;;;2.58;;
10715;SDS011;5409;42.620;23.316;2023-03-20T00:52:44;4.38;;;2.30;;
10715;SDS011;5409;42.620;23.316;2023-03-20T00:55:11;5.07;;;2.50;;
10715;SDS011;5409;42.620;23.316;2023-03-20T00:57:39;2.95;;;2.40;;
10715;SDS011;5409;42.620;23.316;2023-03-20T01:00:20;3.53;;;2.53;;
10715;SDS011;5409;42.620;23.316;2023-03-20T01:02:50;3.55;;;2.55;;
10715;SDS011;5409;42.620;23.316;2023-03-20T01:05:19;5.55;;;3.10;;
10715;SDS011;5409;42.620;23.316;2023-03-20T01:07:48;4.43;;;2.63;;
10715;SDS011;5409;42.620;23.316;2023-03-20T01:10:15;4.38;;;2.88;;
10715;SDS011;5409;42.620;23.316;2023-03-20T01:12:42;3.75;;;2.78;;
10715;SDS011;5409;42.620;23.316;2023-03-20T01:15:15;2.65;;;2.45;;
10715;SDS011;5409;42.620;23.316;2023-03-20T01:17:45;5.07;;;2.72;;
10715;SDS011;5409;42.620;23.316;2023-03-20T01:20:17;4.00;;;2.70;;
10715;SDS011;5409;42.620;23.316;2023-03-20T01:22:46;4.20;;;2.55;;
10715;SDS011;5409;42.620;23.316;2023-03-20T01:25:14;2.60;;;2.40;;
10715;SDS011;5409;42.620;23.316;2023-03-20T01:27:41;3.90;;;3.10;;
10715;SDS011;5409;42.620;23.316;2023-03-20T01:30:17;5.63;;;2.70;;
10715;SDS011;5409;42.620;23.316;2023-03-20T01:32:48;2.80;;;2.33;;
10715;SDS011;5409;42.620;23.316;2023-03-20T01:35:16;5.40;;;2.80;;
10715;SDS011;5409;42.620;23.316;2023-03-20T01:37:45;4.03;;;2.40;;
10715;SDS011;5409;42.620;23.316;2023-03-20T01:40:16;4.68;;;3.17;;
10715;SDS011;5409;42.620;23.316;2023-03-20T01:42:52;7.68;;;2.88;;
10715;SDS011;5409;42.620;23.316;2023-03-20T01:45:20;3.95;;;2.65;;
10715;SDS011;5409;42.620;23.316;2023-03-20T01:47:51;3.35;;;2.63;;
10715;SDS011;5409;42.620;23.316;2023-03-20T01:50:23;4.20;;;3.25;;
10715;SDS011;5409;42.620;23.316;2023-03-20T01:52:52;3.33;;;2.58;;
10715;SDS011;5409;42.620;23.316;2023-03-20T01:55:25;3.42;;;2.50;;
10715;SDS011;5409;42.620;23.316;2023-03-20T01:57:53;4.38;;;2.75;;
10715;SDS011;5409;42.620;23.316;2023-03-20T02:00:22;3.05;;;2.75;;
10715;SDS011;5409;42.620;23.316;2023-03-20T02:02:49;3.78;;;2.65;;
10715;SDS011;5409;42.620;23.316;2023-03-20T02:05:17;4.70;;;2.67;;
10715;SDS011;5409;42.620;23.316;2023-03-20T02:07:48;2.63;;;2.22;;
10715;SDS011;5409;42.620;23.316;2023-03-20T02:10:21;2.92;;;2.25;;
10715;SDS011;5409;42.620;23.316;2023-03-20T02:12:50;4.93;;;2.28;;
10715;SDS011;5409;42.620;23.316;2023-03-20T02:15:17;5.30;;;2.80;;
10715;SDS011;5409;42.620;23.316;2023-03-20T02:17:44;3.97;;;2.97;;
10715;SDS011;5409;42.620;23.316;2023-03-20T02:20:13;5.22;;;2.53;;
10715;SDS011;5409;42.620;23.316;2023-03-20T02:22:53;3.28;;;2.90;;
10715;SDS011;5409;42.620;23.316;2023-03-20T02:34:41;5.75;;;2.95;;
10715;SDS011;5409;42.620;23.316;2023-03-20T02:37:31;5.00;;;2.70;;
10715;SDS011;5409;42.620;23.316;2023-03-20T02:40:17;4.72;;;2.50;;
10715;SDS011;5409;42.620;23.316;2023-03-20T02:42:52;3.45;;;3.00;;
10715;SDS011;5409;42.620;23.316;2023-03-20T02:45:27;4.15;;;2.88;;
10715;SDS011;5409;42.620;23.316;2023-03-20T02:47:58;3.35;;;2.90;;
10715;SDS011;5409;42.620;23.316;2023-03-20T02:50:33;4.05;;;2.80;;
10715;SDS011;5409;42.620;23.316;2023-03-20T02:53:10;5.43;;;2.45;;
10715;SDS011;5409;42.620;23.316;2023-03-20T02:55:46;2.78;;;2.42;;
10715;SDS011;5409;42.620;23.316;2023-03-20T02:58:20;3.78;;;2.80;;
10715;SDS011;5409;42.620;23.316;2023-03-20T03:00:54;3.60;;;2.83;;
10715;SDS011;5409;42.620;23.316;2023-03-20T03:03:27;5.20;;;3.00;;
10715;SDS011;5409;42.620;23.316;2023-03-20T03:06:00;3.45;;;2.53;;
10715;SDS011;5409;42.620;23.316;2023-03-20T03:08:36;3.67;;;2.50;;
10715;SDS011;5409;42.620;23.316;2023-03-20T03:11:06;4.20;;;2.95;;
10715;SDS011;5409;42.620;23.316;2023-03-20T03:13:35;4.30;;;2.70;;
10715;SDS011;5409;42.620;23.316;2023-03-20T03:16:06;3.97;;;2.67;;
10715;SDS011;5409;42.620;23.316;2023-03-20T03:18:36;3.95;;;2.67;;
10715;SDS011;5409;42.620;23.316;2023-03-20T03:21:06;2.45;;;2.13;;
10715;SDS011;5409;42.620;23.316;2023-03-20T03:23:40;3.08;;;2.33;;
10715;SDS011;5409;42.620;23.316;2023-03-20T03:26:08;3.65;;;2.58;;
10715;SDS011;5409;42.620;23.316;2023-03-20T03:28:41;2.97;;;2.42;;
10715;SDS011;5409;42.620;23.316;2023-03-20T03:31:12;3.67;;;2.85;;
10715;SDS011;5409;42.620;23.316;2023-03-20T03:33:41;3.72;;;2.90;;
10715;SDS011;5409;42.620;23.316;2023-03-20T03:36:12;2.95;;;2.50;;
10715;SDS011;5409;42.620;23.316;2023-03-20T03:38:53;3.15;;;2.42;;
10715;SDS011;5409;42.620;23.316;2023-03-20T03:41:25;2.78;;;2.00;;
10715;SDS011;5409;42.620;23.316;2023-03-20T03:44:00;2.65;;;2.10;;
10715;SDS011;5409;42.620;23.316;2023-03-20T03:46:36;3.28;;;2.08;;
10715;SDS011;5409;42.620;23.316;2023-03-20T03:49:07;2.67;;;2.13;;
10715;SDS011;5409;42.620;23.316;2023-03-20T03:51:41;5.45;;;2.10;;
10715;SDS011;5409;42.620;23.316;2023-03-20T03:54:11;3.53;;;2.33;;
10715;SDS011;5409;42.620;23.316;2023-03-20T03:56:43;3.55;;;2.30;;
10715;SDS011;5409;42.620;23.316;2023-03-20T03:59:16;3.22;;;2.65;;
10715;SDS011;5409;42.620;23.316;2023-03-20T04:01:46;3.13;;;2.28;;
10715;SDS011;5409;42.620;23.316;2023-03-20T04:04:15;5.40;;;3.08;;
10715;SDS011;5409;42.620;23.316;2023-03-20T04:06:45;4.03;;;2.60;;
10715;SDS011;5409;42.620;23.316;2023-03-20T04:09:13;3.85;;;3.00;;
10715;SDS011;5409;42.620;23.316;2023-03-20T04:11:40;4.60;;;2.75;;
10715;SDS011;5409;42.620;23.316;2023-03-20T04:14:07;3.22;;;2.58;;
10715;SDS011;5409;42.620;23.316;2023-03-20T04:16:33;3.85;;;2.80;;
10715;SDS011;5409;42.620;23.316;2023-03-20T04:19:00;5.13;;;2.97;;
10715;SDS011;5409;42.620;23.316;2023-03-20T04:21:27;4.47;;;3.17;;
10715;SDS011;5409;42.620;23.316;2023-03-20T04:23:54;3.95;;;2.70;;
10715;SDS011;5409;42.620;23.316;2023-03-20T04:26:22;5.47;;;3.10;;
10715;SDS011;5409;42.620;23.316;2023-03-20T04:28:48;2.70;;;2.45;;
10715;SDS011;5409;42.620;23.316;2023-03-20T04:31:15;8.00;;;3.42;;
10715;SDS011;5409;42.620;23.316;2023-03-20T04:33:43;3.33;;;2.53;;
10715;SDS011;5409;42.620;23.316;2023-03-20T04:36:09;3.17;;;2.83;;
10715;SDS011;5409;42.620;23.316;2023-03-20T04:38:37;4.30;;;3.13;;
10715;SDS011;5409;42.620;23.316;2023-03-20T04:41:04;3.00;;;2.65;;
10715;SDS011;5409;42.620;23.316;2023-03-20T04:43:33;4.55;;;3.03;;
10715;SDS011;5409;42.620;23.316;2023-03-20T04:46:00;3.83;;;2.90;;
10715;SDS011;5409;42.620;23.316;2023-03-20T04:48:26;5.47;;;2.72;;
10715;SDS011;5409;42.620;23.316;2023-03-20T04:50:53;3.47;;;2.90;;
10715;SDS011;5409;42.620;23.316;2023-03-20T04:53:20;5.40;;;2.15;;
10715;SDS011;5409;42.620;23.316;2023-03-20T04:55:47;5.82;;;2.63;;
10715;SDS011;5409;42.620;23.316;2023-03-20T04:58:15;4.90;;;2.20;;
10715;SDS011;5409;42.620;23.316;2023-03-20T05:00:43;3.33;;;2.20;;
10715;SDS011;5409;42.620;23.316;2023-03-20T05:03:10;5.85;;;2.22;;
10715;SDS011;5409;42.620;23.316;2023-03-20T05:05:37;4.15;;;1.90;;
10715;SDS011;5409;42.620;23.316;2023-03-20T05:08:03;4.53;;;3.15;;
10715;SDS011;5409;42.620;23.316;2023-03-20T05:10:30;8.10;;;4.60;;
10715;SDS011;5409;42.620;23.316;2023-03-20T05:12:57;5.95;;;4.40;;
10715;SDS011;5409;42.620;23.316;2023-03-20T05:15:24;4.20;;;3.08;;
10715;SDS011;5409;42.620;23.316;2023-03-20T05:17:53;3.78;;;2.90;;
10715;SDS011;5409;42.620;23.316;2023-03-20T05:20:20;6.20;;;2.88;;
10715;SDS011;5409;42.620;23.316;2023-03-20T05:22:47;4.82;;;2.58;;
10715;SDS011;5409;42.620;23.316;2023-03-20T05:25:15;3.55;;;3.08;;
10715;SDS011;5409;42.620;23.316;2023-03-20T05:27:42;4.80;;;3.28;;
10715;SDS011;5409;42.620;23.316;2023-03-20T05:30:10;4.35;;;3.03;;
10715;SDS011;5409;42.620;23.316;2023-03-20T05:32:38;4.00;;;2.95;;
10715;SDS011;5409;42.620;23.316;2023-03-20T05:35:07;3.45;;;2.40;;
10715;SDS011;5409;42.620;23.316;2023-03-20T05:37:35;4.35;;;2.67;;
10715;SDS011;5409;42.620;23.316;2023-03-20T05:40:02;7.85;;;3.05;;
10715;SDS011;5409;42.620;23.316;2023-03-20T05:42:29;6.80;;;4.43;;
10715;SDS011;5409;42.620;23.316;2023-03-20T05:44:56;6.30;;;4.50;;
10715;SDS011;5409;42.620;23.316;2023-03-20T05:47:23;7.28;;;4.40;;
10715;SDS011;5409;42.620;23.316;2023-03-20T05:49:49;6.05;;;3.58;;
10715;SDS011;5409;42.620;23.316;2023-03-20T05:52:17;4.90;;;2.90;;
10715;SDS011;5409;42.620;23.316;2023-03-20T05:54:44;4.95;;;3.33;;
10715;SDS011;5409;42.620;23.316;2023-03-20T05:57:11;4.38;;;2.78;;
10715;SDS011;5409;42.620;23.316;2023-03-20T05:59:38;5.55;;;3.00;;
10715;SDS011;5409;42.620;23.316;2023-03-20T06:02:04;3.70;;;2.85;;
10715;SDS011;5409;42.620;23.316;2023-03-20T06:04:31;11.57;;;6.07;;
10715;SDS011;5409;42.620;23.316;2023-03-20T06:06:59;10.43;;;7.22;;
10715;SDS011;5409;42.620;23.316;2023-03-20T06:09:27;15.25;;;7.80;;
10715;SDS011;5409;42.620;23.316;2023-03-20T06:11:53;14.35;;;8.80;;
10715;SDS011;5409;42.620;23.316;2023-03-20T06:14:21;15.63;;;9.02;;
10715;SDS011;5409;42.620;23.316;2023-03-20T06:16:48;12.45;;;8.77;;
10715;SDS011;5409;42.620;23.316;2023-03-20T06:19:14;11.48;;;8.40;;
10715;SDS011;5409;42.620;23.316;2023-03-20T06:21:41;13.38;;;8.85;;
10715;SDS011;5409;42.620;23.316;2023-03-20T06:24:08;16.60;;;10.00;;
10715;SDS011;5409;42.620;23.316;2023-03-20T06:26:36;17.38;;;10.38;;
10715;SDS011;5409;42.620;23.316;2023-03-20T06:29:03;13.07;;;9.32;;
10715;SDS011;5409;42.620;23.316;2023-03-20T06:31:30;10.90;;;8.35;;
10715;SDS011;5409;42.620;23.316;2023-03-20T06:33:57;14.60;;;8.07;;
10715;SDS011;5409;42.620;23.316;2023-03-20T06:36:24;11.35;;;7.32;;
10715;SDS011;5409;42.620;23.316;2023-03-20T06:38:51;11.45;;;8.45;;
10715;SDS011;5409;42.620;23.316;2023-03-20T06:41:17;12.70;;;8.05;;
10715;SDS011;5409;42.620;23.316;2023-03-20T06:43:46;10.90;;;7.93;;
10715;SDS011;5409;42.620;23.316;2023-03-20T06:46:13;12.85;;;8.77;;
10715;SDS011;5409;42.620;23.316;2023-03-20T06:48:40;13.05;;;8.10;;
10715;SDS011;5409;42.620;23.316;2023-03-20T06:51:07;18.17;;;10.35;;
10715;SDS011;5409;42.620;23.316;2023-03-20T06:53:33;18.08;;;9.68;;
10715;SDS011;5409;42.620;23.316;2023-03-20T06:56:00;16.48;;;9.70;;
10715;SDS011;5409;42.620;23.316;2023-03-20T06:58:27;14.95;;;9.43;;
10715;SDS011;5409;42.620;23.316;2023-03-20T07:00:55;16.67;;;9.05;;
10715;SDS011;5409;42.620;23.316;2023-03-20T07:03:22;17.58;;;9.45;;
10715;SDS011;5409;42.620;23.316;2023-03-20T07:05:49;15.07;;;9.02;;
10715;SDS011;5409;42.620;23.316;2023-03-20T07:08:16;18.55;;;9.48;;
10715;SDS011;5409;42.620;23.316;2023-03-20T07:10:42;16.98;;;9.07;;
10715;SDS011;5409;42.620;23.316;2023-03-20T07:13:09;22.17;;;10.02;;
10715;SDS011;5409;42.620;23.316;2023-03-20T07:15:36;26.40;;;10.63;;
10715;SDS011;5409;42.620;23.316;2023-03-20T07:18:04;20.40;;;10.40;;
10715;SDS011;5409;42.620;23.316;2023-03-20T07:20:31;20.65;;;11.18;;
10715;SDS011;5409;42.620;23.316;2023-03-20T07:22:58;20.25;;;9.93;;
10715;SDS011;5409;42.620;23.316;2023-03-20T07:25:25;11.98;;;8.73;;
10715;SDS011;5409;42.620;23.316;2023-03-20T07:27:51;34.85;;;9.88;;
10715;SDS011;5409;42.620;23.316;2023-03-20T07:30:19;16.05;;;8.32;;
10715;SDS011;5409;42.620;23.316;2023-03-20T07:32:46;12.13;;;7.30;;
10715;SDS011;5409;42.620;23.316;2023-03-20T07:35:14;14.57;;;7.60;;
10715;SDS011;5409;42.620;23.316;2023-03-20T07:37:42;11.05;;;7.38;;
10715;SDS011;5409;42.620;23.316;2023-03-20T07:40:09;10.68;;;6.30;;
10715;SDS011;5409;42.620;23.316;2023-03-20T07:42:36;12.27;;;7.60;;
10715;SDS011;5409;42.620;23.316;2023-03-20T07:45:04;16.27;;;8.68;;
10715;SDS011;5409;42.620;23.316;2023-03-20T07:47:31;13.68;;;8.65;;
10715;SDS011;5409;42.620;23.316;2023-03-20T07:49:58;13.70;;;8.85;;
10715;SDS011;5409;42.620;23.316;2023-03-20T07:52:26;12.10;;;8.13;;
10715;SDS011;5409;42.620;23.316;2023-03-20T07:54:53;17.63;;;7.97;;
10715;SDS011;5409;42.620;23.316;2023-03-20T07:57:20;17.10;;;8.15;;
10715;SDS011;5409;42.620;23.316;2023-03-20T07:59:47;16.55;;;7.63;;
10715;SDS011;5409;42.620;23.316;2023-03-20T08:02:14;14.40;;;7.57;;
10715;SDS011;5409;42.620;23.316;2023-03-20T08:04:42;14.90;;;7.85;;
10715;SDS011;5409;42.620;23.316;2023-03-20T08:07:10;13.38;;;7.53;;
10715;SDS011;5409;42.620;23.316;2023-03-20T08:09:38;15.10;;;7.53;;
10715;SDS011;5409;42.620;23.316;2023-03-20T08:12:05;10.15;;;6.70;;
10715;SDS011;5409;42.620;23.316;2023-03-20T08:14:33;13.43;;;7.45;;
10715;SDS011;5409;42.620;23.316;2023-03-20T08:17:02;12.73;;;7.47;;
10715;SDS011;5409;42.620;23.316;2023-03-20T08:19:29;11.48;;;6.80;;
10715;SDS011;5409;42.620;23.316;2023-03-20T08:21:56;15.32;;;6.60;;
10715;SDS011;5409;42.620;23.316;2023-03-20T08:24:23;13.40;;;6.85;;
10715;SDS011;5409;42.620;23.316;2023-03-20T08:26:51;11.18;;;7.18;;
10715;SDS011;5409;42.620;23.316;2023-03-20T08:29:18;10.93;;;7.72;;
10715;SDS011;5409;42.620;23.316;2023-03-20T08:31:45;12.15;;;6.65;;
10715;SDS011;5409;42.620;23.316;2023-03-20T08:34:12;10.50;;;7.43;;
10715;SDS011;5409;42.620;23.316;2023-03-20T08:36:39;13.80;;;6.95;;
10715;SDS011;5409;42.620;23.316;2023-03-20T08:39:06;17.08;;;7.68;;
10715;SDS011;5409;42.620;23.316;2023-03-20T08:41:33;12.38;;;7.80;;
10715;SDS011;5409;42.620;23.316;2023-03-20T08:44:04;12.90;;;7.53;;
10715;SDS011;5409;42.620;23.316;2023-03-20T08:46:31;12.85;;;7.22;;
10715;SDS011;5409;42.620;23.316;2023-03-20T08:48:58;10.88;;;7.05;;
10715;SDS011;5409;42.620;23.316;2023-03-20T08:51:25;20.45;;;7.53;;
10715;SDS011;5409;42.620;23.316;2023-03-20T08:53:52;9.73;;;7.32;;
10715;SDS011;5409;42.620;23.316;2023-03-20T08:56:19;14.55;;;7.53;;
10715;SDS011;5409;42.620;23.316;2023-03-20T08:58:46;17.10;;;7.82;;
10715;SDS011;5409;42.620;23.316;2023-03-20T09:01:15;12.07;;;7.80;;
10715;SDS011;5409;42.620;23.316;2023-03-20T09:03:41;13.75;;;7.75;;
10715;SDS011;5409;42.620;23.316;2023-03-20T09:06:09;18.42;;;7.93;;
10715;SDS011;5409;42.620;23.316;2023-03-20T09:08:36;14.18;;;7.97;;
10715;SDS011;5409;42.620;23.316;2023-03-20T09:11:03;12.52;;;8.18;;
10715;SDS011;5409;42.620;23.316;2023-03-20T09:13:31;14.57;;;7.95;;
10715;SDS011;5409;42.620;23.316;2023-03-20T09:15:58;14.27;;;7.90;;
10715;SDS011;5409;42.620;23.316;2023-03-20T09:18:26;12.50;;;8.20;;
10715;SDS011;5409;42.620;23.316;2023-03-20T09:20:53;12.70;;;8.63;;
10715;SDS011;5409;42.620;23.316;2023-03-20T09:23:20;16.80;;;9.40;;
10715;SDS011;5409;42.620;23.316;2023-03-20T09:25:47;15.32;;;8.30;;
10715;SDS011;5409;42.620;23.316;2023-03-20T09:28:14;13.43;;;8.13;;
10715;SDS011;5409;42.620;23.316;2023-03-20T09:30:41;18.45;;;8.05;;
10715;SDS011;5409;42.620;23.316;2023-03-20T09:33:08;13.00;;;8.93;;
10715;SDS011;5409;42.620;23.316;2023-03-20T09:35:37;12.38;;;8.05;;
10715;SDS011;5409;42.620;23.316;2023-03-20T09:38:03;22.65;;;8.80;;
10715;SDS011;5409;42.620;23.316;2023-03-20T09:40:32;18.80;;;8.85;;
10715;SDS011;5409;42.620;23.316;2023-03-20T09:43:13;15.93;;;8.50;;
10715;SDS011;5409;42.620;23.316;2023-03-20T09:45:49;12.13;;;7.88;;
10715;SDS011;5409;42.620;23.316;2023-03-20T09:48:27;17.45;;;9.02;;
10715;SDS011;5409;42.620;23.316;2023-03-20T09:51:01;14.57;;;8.52;;
10715;SDS011;5409;42.620;23.316;2023-03-20T09:53:36;19.23;;;8.13;;
10715;SDS011;5409;42.620;23.316;2023-03-20T09:56:07;12.90;;;8.38;;
10715;SDS011;5409;42.620;23.316;2023-03-20T09:58:40;21.27;;;9.05;;
10715;SDS011;5409;42.620;23.316;2023-03-20T10:01:09;15.73;;;8.43;;
10715;SDS011;5409;42.620;23.316;2023-03-20T10:03:41;19.30;;;9.23;;
10715;SDS011;5409;42.620;23.316;2023-03-20T10:06:14;17.30;;;8.32;;
10715;SDS011;5409;42.620;23.316;2023-03-20T10:08:42;16.33;;;8.15;;
10715;SDS011;5409;42.620;23.316;2023-03-20T10:11:14;16.48;;;8.77;;
10715;SDS011;5409;42.620;23.316;2023-03-20T10:14:02;16.65;;;9.35;;
10715;SDS011;5409;42.620;23.316;2023-03-20T10:16:44;13.25;;;8.85;;
10715;SDS011;5409;42.620;23.316;2023-03-20T10:19:27;15.00;;;10.25;;
10715;SDS011;5409;42.620;23.316;2023-03-20T10:21:58;14.43;;;10.20;;
10715;SDS011;5409;42.620;23.316;2023-03-20T10:24:28;19.10;;;10.30;;
10715;SDS011;5409;42.620;23.316;2023-03-20T10:26:59;19.27;;;10.95;;
10715;SDS011;5409;42.620;23.316;2023-03-20T10:29:32;16.30;;;10.32;;
10715;SDS011;5409;42.620;23.316;2023-03-20T10:32:09;16.30;;;10.13;;
10715;SDS011;5409;42.620;23.316;2023-03-20T10:34:49;14.98;;;10.02;;
10715;SDS011;5409;42.620;23.316;2023-03-20T10:37:46;19.65;;;10.02;;
10715;SDS011;5409;42.620;23.316;2023-03-20T10:40:26;24.08;;;10.80;;
10715;SDS011;5409;42.620;23.316;2023-03-20T10:42:57;22.42;;;10.77;;
10715;SDS011;5409;42.620;23.316;2023-03-20T10:45:31;17.65;;;10.57;;
10715;SDS011;5409;42.620;23.316;2023-03-20T10:48:03;28.95;;;10.73;;
10715;SDS011;5409;42.620;23.316;2023-03-20T10:50:39;16.42;;;10.25;;
10715;SDS011;5409;42.620;23.316;2023-03-20T10:53:16;16.85;;;9.82;;
10715;SDS011;5409;42.620;23.316;2023-03-20T10:55:49;20.58;;;10.88;;
10715;SDS011;5409;42.620;23.316;2023-03-20T10:58:17;20.60;;;10.50;;
10715;SDS011;5409;42.620;23.316;2023-03-20T11:00:47;22.15;;;11.02;;
10715;SDS011;5409;42.620;23.316;2023-03-20T11:03:16;19.10;;;10.80;;
10715;SDS011;5409;42.620;23.316;2023-03-20T11:05:48;17.00;;;10.57;;
10715;SDS011;5409;42.620;23.316;2023-03-20T11:08:23;22.08;;;11.23;;
10715;SDS011;5409;42.620;23.316;2023-03-20T11:10:59;17.38;;;11.73;;
10715;SDS011;5409;42.620;23.316;2023-03-20T11:13:28;19.17;;;10.10;;
10715;SDS011;5409;42.620;23.316;2023-03-20T11:15:57;17.02;;;10.80;;
10715;SDS011;5409;42.620;23.316;2023-03-20T11:18:34;17.23;;;10.77;;
10715;SDS011;5409;42.620;23.316;2023-03-20T11:21:01;21.02;;;12.35;;
10715;SDS011;5409;42.620;23.316;2023-03-20T11:23:31;20.15;;;11.00;;
10715;SDS011;5409;42.620;23.316;2023-03-20T11:25:59;14.27;;;10.80;;
10715;SDS011;5409;42.620;23.316;2023-03-20T11:28:32;22.15;;;10.88;;
10715;SDS011;5409;42.620;23.316;2023-03-20T11:31:02;15.60;;;10.15;;
10715;SDS011;5409;42.620;23.316;2023-03-20T11:33:31;22.83;;;11.10;;
10715;SDS011;5409;42.620;23.316;2023-03-20T11:36:04;15.65;;;9.82;;
10715;SDS011;5409;42.620;23.316;2023-03-20T11:38:39;18.20;;;9.82;;
10715;SDS011;5409;42.620;23.316;2023-03-20T11:41:10;20.17;;;10.32;;
10715;SDS011;5409;42.620;23.316;2023-03-20T11:43:43;18.52;;;9.80;;
10715;SDS011;5409;42.620;23.316;2023-03-20T11:46:09;18.83;;;9.98;;
10715;SDS011;5409;42.620;23.316;2023-03-20T11:48:39;22.35;;;9.85;;
10715;SDS011;5409;42.620;23.316;2023-03-20T11:51:09;11.55;;;9.18;;
10715;SDS011;5409;42.620;23.316;2023-03-20T11:53:41;17.40;;;9.48;;
10715;SDS011;5409;42.620;23.316;2023-03-20T11:56:24;17.98;;;9.80;;
10715;SDS011;5409;42.620;23.316;2023-03-20T11:58:53;21.70;;;9.70;;
10715;SDS011;5409;42.620;23.316;2023-03-20T12:01:22;15.63;;;9.55;;
10715;SDS011;5409;42.620;23.316;2023-03-20T12:03:51;19.08;;;9.77;;
10715;SDS011;5409;42.620;23.316;2023-03-20T12:06:24;16.30;;;9.25;;
10715;SDS011;5409;42.620;23.316;2023-03-20T12:08:54;16.58;;;8.80;;
10715;SDS011;5409;42.620;23.316;2023-03-20T12:11:40;14.63;;;9.45;;
10715;SDS011;5409;42.620;23.316;2023-03-20T12:14:15;16.95;;;9.63;;
10715;SDS011;5409;42.620;23.316;2023-03-20T12:16:48;11.93;;;8.95;;
10715;SDS011;5409;42.620;23.316;2023-03-20T12:19:17;16.60;;;9.52;;
10715;SDS011;5409;42.620;23.316;2023-03-20T12:21:50;12.73;;;9.15;;
10715;SDS011;5409;42.620;23.316;2023-03-20T12:24:28;16.65;;;9.27;;
10715;SDS011;5409;42.620;23.316;2023-03-20T12:27:06;15.40;;;8.70;;
10715;SDS011;5409;42.620;23.316;2023-03-20T12:29:45;11.50;;;8.32;;
10715;SDS011;5409;42.620;23.316;2023-03-20T12:32:19;15.55;;;8.90;;
10715;SDS011;5409;42.620;23.316;2023-03-20T12:34:50;15.02;;;9.73;;
10715;SDS011;5409;42.620;23.316;2023-03-20T12:37:21;15.85;;;9.75;;
10715;SDS011;5409;42.620;23.316;2023-03-20T12:39:50;16.38;;;9.07;;
10715;SDS011;5409;42.620;23.316;2023-03-20T12:42:22;14.52;;;9.25;;
10715;SDS011;5409;42.620;23.316;2023-03-20T12:45:03;13.77;;;8.93;;
10715;SDS011;5409;42.620;23.316;2023-03-20T12:50:30;13.75;;;8.50;;
10715;SDS011;5409;42.620;23.316;2023-03-20T12:56:03;13.25;;;9.13;;
10715;SDS011;5409;42.620;23.316;2023-03-20T12:58:43;13.38;;;9.63;;
10715;SDS011;5409;42.620;23.316;2023-03-20T13:01:13;37.30;;;10.23;;
10715;SDS011;5409;42.620;23.316;2023-03-20T13:04:09;11.70;;;9.48;;
10715;SDS011;5409;42.620;23.316;2023-03-20T13:06:50;12.02;;;7.70;;
10715;SDS011;5409;42.620;23.316;2023-03-20T13:09:36;11.10;;;8.15;;
10715;SDS011;5409;42.620;23.316;2023-03-20T13:12:16;15.35;;;8.13;;
10715;SDS011;5409;42.620;23.316;2023-03-20T13:14:51;16.80;;;8.20;;
10715;SDS011;5409;42.620;23.316;2023-03-20T13:17:26;16.17;;;8.60;;
10715;SDS011;5409;42.620;23.316;2023-03-20T13:20:06;12.93;;;7.65;;
10715;SDS011;5409;42.620;23.316;2023-03-20T13:22:47;11.52;;;7.78;;
10715;SDS011;5409;42.620;23.316;2023-03-20T13:25:30;17.40;;;7.18;;
10715;SDS011;5409;42.620;23.316;2023-03-20T13:28:12;10.82;;;6.88;;
10715;SDS011;5409;42.620;23.316;2023-03-20T13:30:49;10.32;;;7.43;;
10715;SDS011;5409;42.620;23.316;2023-03-20T13:33:23;14.98;;;6.88;;
10715;SDS011;5409;42.620;23.316;2023-03-20T13:36:00;14.60;;;6.95;;
10715;SDS011;5409;42.620;23.316;2023-03-20T13:38:32;12.35;;;7.07;;
10715;SDS011;5409;42.620;23.316;2023-03-20T13:41:03;15.82;;;6.72;;
10715;SDS011;5409;42.620;23.316;2023-03-20T13:43:36;10.98;;;6.70;;
10715;SDS011;5409;42.620;23.316;2023-03-20T13:46:07;11.77;;;6.35;;
10715;SDS011;5409;42.620;23.316;2023-03-20T13:48:39;12.90;;;6.78;;
10715;SDS011;5409;42.620;23.316;2023-03-20T13:51:09;12.38;;;6.43;;
10715;SDS011;5409;42.620;23.316;2023-03-20T13:53:45;10.80;;;6.28;;
10715;SDS011;5409;42.620;23.316;2023-03-20T13:56:21;10.07;;;6.30;;
10715;SDS011;5409;42.620;23.316;2023-03-20T13:58:58;8.57;;;6.20;;
10715;SDS011;5409;42.620;23.316;2023-03-20T14:01:36;9.85;;;5.70;;
10715;SDS011;5409;42.620;23.316;2023-03-20T14:04:12;10.20;;;6.15;;
10715;SDS011;5409;42.620;23.316;2023-03-20T14:06:44;9.65;;;6.43;;
10715;SDS011;5409;42.620;23.316;2023-03-20T14:09:31;10.38;;;5.78;;
10715;SDS011;5409;42.620;23.316;2023-03-20T14:12:04;11.63;;;5.53;;
10715;SDS011;5409;42.620;23.316;2023-03-20T14:14:38;9.90;;;5.82;;
10715;SDS011;5409;42.620;23.316;2023-03-20T14:17:10;9.35;;;6.10;;
10715;SDS011;5409;42.620;23.316;2023-03-20T14:19:41;11.48;;;5.90;;
10715;SDS011;5409;42.620;23.316;2023-03-20T14:22:13;10.68;;;6.18;;
10715;SDS011;5409;42.620;23.316;2023-03-20T14:24:43;13.13;;;6.25;;
10715;SDS011;5409;42.620;23.316;2023-03-20T14:27:23;16.60;;;5.70;;
10715;SDS011;5409;42.620;23.316;2023-03-20T14:29:54;8.90;;;5.55;;
10715;SDS011;5409;42.620;23.316;2023-03-20T14:32:22;15.38;;;5.70;;
10715;SDS011;5409;42.620;23.316;2023-03-20T14:34:58;13.98;;;5.30;;
10715;SDS011;5409;42.620;23.316;2023-03-20T14:37:34;10.18;;;5.30;;
10715;SDS011;5409;42.620;23.316;2023-03-20T14:40:04;7.57;;;4.97;;
10715;SDS011;5409;42.620;23.316;2023-03-20T14:42:42;12.50;;;4.97;;
10715;SDS011;5409;42.620;23.316;2023-03-20T14:45:21;8.73;;;4.45;;
10715;SDS011;5409;42.620;23.316;2023-03-20T14:47:57;5.55;;;4.28;;
10715;SDS011;5409;42.620;23.316;2023-03-20T14:50:29;8.65;;;4.60;;
10715;SDS011;5409;42.620;23.316;2023-03-20T14:53:01;9.65;;;4.80;;
10715;SDS011;5409;42.620;23.316;2023-03-20T15:01:27;7.88;;;4.00;;
10715;SDS011;5409;42.620;23.316;2023-03-20T15:04:09;7.70;;;4.28;;
10715;SDS011;5409;42.620;23.316;2023-03-20T15:06:49;5.53;;;4.00;;
10715;SDS011;5409;42.620;23.316;2023-03-20T15:09:19;7.38;;;4.40;;
10715;SDS011;5409;42.620;23.316;2023-03-20T15:11:49;6.82;;;3.90;;
10715;SDS011;5409;42.620;23.316;2023-03-20T15:14:17;7.25;;;4.30;;
10715;SDS011;5409;42.620;23.316;2023-03-20T15:16:50;7.03;;;4.07;;
10715;SDS011;5409;42.620;23.316;2023-03-20T15:19:22;10.90;;;4.43;;